Time;durP1;ratioP1;P1;durP2;ratioP2;P2;SDS_P1;SDS_P2;PMS_P1;PMS_P2;Temp;Humidity;BMP_temperature;BMP_pressure;BME280_temperature;BME280_humidity;BME280_pressure;Samples;Min_cycle;Max_cycle;Signal;HPM_P1;HPM_P2
2022/08/05 02:59:25;;;;;;;14.70;13.90;;;24.50;99.90;;;;;;5419508;23;20502;-69
2022/08/05 03:01:57;;;;;;;15.20;14.27;;;24.50;99.90;;;;;;4912763;29;20520;-69
2022/08/05 03:04:24;;;;;;;13.60;12.90;;;24.40;99.90;;;;;;4915150;29;20454;-69
2022/08/05 03:06:50;;;;;;;14.07;13.43;;;24.40;99.90;;;;;;4914835;29;20462;-69
2022/08/05 03:09:17;;;;;;;14.57;13.77;;;24.40;99.90;;;;;;4914770;29;20936;-68
2022/08/05 03:11:44;;;;;;;14.87;14.00;;;24.40;99.90;;;;;;4914465;29;20966;-68
2022/08/05 03:14:11;;;;;;;13.70;13.00;;;24.40;99.90;;;;;;4922448;29;20450;-69
2022/08/05 03:16:39;;;;;;;14.70;13.87;;;24.40;99.90;;;;;;4923152;29;20953;-68
2022/08/05 03:19:06;;;;;;;14.70;13.80;;;24.40;99.90;;;;;;4923254;29;20445;-68
2022/08/05 03:21:32;;;;;;;16.13;15.30;;;24.30;99.90;;;;;;4924344;29;20508;-71
2022/08/05 03:23:59;;;;;;;16.03;14.90;;;24.20;99.90;;;;;;4923300;29;20473;-70
2022/08/05 03:26:27;;;;;;;14.97;14.10;;;24.10;99.90;;;;;;4922853;29;20457;-70
2022/08/05 03:28:53;;;;;;;15.27;14.10;;;24.10;99.90;;;;;;4924233;29;20512;-69
2022/08/05 03:31:21;;;;;;;15.47;14.23;;;24.10;99.90;;;;;;4922957;29;20443;-70
2022/08/05 03:33:49;;;;;;;16.23;15.40;;;24.00;99.90;;;;;;4922497;29;21207;-68
2022/08/05 03:36:15;;;;;;;16.30;14.70;;;24.00;99.90;;;;;;4916639;29;20513;-69
2022/08/05 03:38:42;;;;;;;15.10;14.30;;;23.90;99.90;;;;;;4914268;29;20463;-67
2022/08/05 03:41:09;;;;;;;16.67;15.30;;;23.90;99.90;;;;;;4914818;29;20454;-69
2022/08/05 03:43:36;;;;;;;15.97;14.70;;;23.90;99.90;;;;;;4924251;29;20492;-70
2022/08/05 03:46:04;;;;;;;14.43;13.53;;;23.90;99.90;;;;;;4922551;29;20456;-70
2022/08/05 03:48:31;;;;;;;16.20;15.10;;;23.90;99.90;;;;;;4932922;29;20948;-69
2022/08/05 03:51:07;;;;;;;16.03;15.10;;;23.90;99.90;;;;;;4932878;29;20454;-69
2022/08/05 03:53:38;;;;;;;15.37;14.47;;;23.90;99.90;;;;;;4932670;29;20453;-69
2022/08/05 03:56:10;;;;;;;16.10;15.00;;;23.80;99.90;;;;;;4932523;29;20496;-69
2022/08/05 03:58:38;;;;;;;15.40;14.70;;;23.80;99.90;;;;;;4932648;29;20493;-70
2022/08/05 04:01:08;;;;;;;15.83;14.80;;;23.70;99.90;;;;;;4932795;29;20458;-70
2022/08/05 04:03:38;;;;;;;15.83;14.83;;;23.60;99.90;;;;;;4932816;29;20902;-68
2022/08/05 04:06:07;;;;;;;17.20;16.00;;;23.60;99.90;;;;;;4933047;29;20540;-69
2022/08/05 04:08:36;;;;;;;17.30;15.50;;;23.60;99.90;;;;;;4933105;29;20871;-69
2022/08/05 04:11:06;;;;;;;17.80;16.47;;;23.70;99.90;;;;;;4932843;29;20454;-70
2022/08/05 04:13:33;;;;;;;19.17;17.40;;;23.80;99.90;;;;;;4932602;29;21233;-71
2022/08/05 04:15:59;;;;;;;17.33;16.17;;;23.80;99.90;;;;;;4932859;29;20458;-70
2022/08/05 04:18:26;;;;;;;17.40;16.20;;;23.90;99.90;;;;;;4932960;29;20465;-68
2022/08/05 04:20:54;;;;;;;16.80;15.60;;;23.90;99.90;;;;;;4932675;29;20472;-69
2022/08/05 04:23:24;;;;;;;17.10;15.80;;;23.90;99.90;;;;;;4932268;29;20584;-69
2022/08/05 04:25:51;;;;;;;16.40;15.20;;;23.90;99.90;;;;;;4933110;29;20540;-71
2022/08/05 04:28:18;;;;;;;16.33;15.33;;;23.90;99.90;;;;;;4932676;29;21179;-70
2022/08/05 04:30:46;;;;;;;17.53;15.70;;;23.90;99.90;;;;;;4932400;29;20465;-70
2022/08/05 04:33:13;;;;;;;17.70;16.20;;;23.80;99.90;;;;;;4932687;29;20494;-70
2022/08/05 04:35:40;;;;;;;19.03;16.43;;;23.70;99.90;;;;;;4932458;29;20990;-70
2022/08/05 04:38:07;;;;;;;18.33;17.00;;;23.70;99.90;;;;;;4932693;29;20453;-70
2022/08/05 04:40:35;;;;;;;15.93;14.30;;;23.70;99.90;;;;;;4932251;29;20457;-73
2022/08/05 04:43:02;;;;;;;17.20;15.97;;;23.80;99.90;;;;;;4932382;29;20497;-72
2022/08/05 04:45:29;;;;;;;17.50;16.50;;;23.80;99.90;;;;;;4924016;29;20457;-72
2022/08/05 04:48:04;;;;;;;18.73;17.23;;;23.80;99.90;;;;;;4918914;29;20450;-69
2022/08/05 04:50:31;;;;;;;17.53;16.40;;;23.80;99.90;;;;;;4921406;29;20457;-73
2022/08/05 04:52:57;;;;;;;17.87;16.87;;;23.80;99.90;;;;;;4923332;29;20458;-74
2022/08/05 04:55:24;;;;;;;19.00;17.80;;;23.80;99.90;;;;;;4920984;29;20452;-74
2022/08/05 04:57:52;;;;;;;19.17;17.30;;;23.70;99.90;;;;;;4923014;29;20469;-73
2022/08/05 05:00:19;;;;;;;16.77;15.47;;;23.60;99.90;;;;;;4921538;29;20481;-75
2022/08/05 05:02:46;;;;;;;17.57;16.57;;;23.70;99.90;;;;;;4922037;29;20489;-75
2022/08/05 05:05:13;;;;;;;17.57;16.50;;;23.60;99.90;;;;;;4927028;29;20453;-74
2022/08/05 05:07:39;;;;;;;15.60;14.80;;;23.60;99.90;;;;;;4925803;29;20455;-74
2022/08/05 05:10:07;;;;;;;15.37;14.63;;;23.60;99.90;;;;;;4925377;29;20450;-74
2022/08/05 05:12:33;;;;;;;16.33;15.40;;;23.60;99.90;;;;;;4921815;29;20516;-74
2022/08/05 05:15:02;;;;;;;17.30;15.97;;;23.70;99.90;;;;;;4917136;29;20461;-74
2022/08/05 05:17:28;;;;;;;18.33;16.80;;;23.80;99.90;;;;;;4916969;29;20450;-76
2022/08/05 05:20:22;;;;;;;17.07;15.87;;;23.90;99.90;;;;;;4923294;29;20461;-72
2022/08/05 05:22:49;;;;;;;18.40;16.70;;;24.10;99.90;;;;;;4921099;29;20959;-73
2022/08/05 05:25:16;;;;;;;18.00;16.50;;;24.30;99.90;;;;;;4920269;29;20972;-71
2022/08/05 05:27:42;;;;;;;17.50;16.20;;;25.00;99.90;;;;;;4917115;29;20458;-71
2022/08/05 05:30:12;;;;;;;18.13;17.10;;;25.70;99.90;;;;;;4917443;29;20956;-71
2022/08/05 05:32:39;;;;;;;16.90;15.60;;;26.50;99.90;;;;;;4917665;29;20454;-72
2022/08/05 05:35:06;;;;;;;19.90;18.37;;;26.90;99.90;;;;;;4917179;29;20454;-72
2022/08/05 05:37:33;;;;;;;18.03;16.30;;;27.40;99.90;;;;;;4917202;29;20469;-72
2022/08/05 05:40:00;;;;;;;17.47;16.00;;;27.70;99.60;;;;;;4917101;29;20454;-71
2022/08/05 05:42:26;;;;;;;17.53;16.30;;;27.90;98.60;;;;;;4917219;29;20458;-71
2022/08/05 05:44:53;;;;;;;18.00;16.57;;;27.90;98.30;;;;;;4917198;29;20928;-72
2022/08/05 05:47:21;;;;;;;17.30;15.97;;;28.20;98.10;;;;;;4916954;29;20488;-71
2022/08/05 05:49:48;;;;;;;18.57;17.57;;;28.50;97.10;;;;;;4916905;29;20461;-71
2022/08/05 05:52:14;;;;;;;19.70;18.40;;;28.60;97.20;;;;;;4916784;29;20470;-71
2022/08/05 05:54:41;;;;;;;19.97;18.67;;;28.90;96.60;;;;;;4917124;29;20454;-72
2022/08/05 05:57:08;;;;;;;18.30;17.10;;;29.10;96.00;;;;;;4917003;29;20482;-72
2022/08/05 05:59:34;;;;;;;17.37;16.47;;;29.40;95.30;;;;;;4916636;29;20493;-71
2022/08/05 06:02:01;;;;;;;19.17;17.63;;;29.60;94.70;;;;;;4916702;29;20458;-71
2022/08/05 06:04:29;;;;;;;19.17;17.77;;;29.70;94.20;;;;;;4916680;29;20541;-73
2022/08/05 06:06:56;;;;;;;18.00;16.90;;;29.70;94.20;;;;;;4916900;29;20855;-72
2022/08/05 06:09:23;;;;;;;18.97;17.87;;;29.90;93.80;;;;;;4916772;29;20459;-70
2022/08/05 06:11:49;;;;;;;18.57;17.20;;;29.80;93.80;;;;;;4916478;29;20471;-71
2022/08/05 06:14:16;;;;;;;19.10;17.90;;;29.90;93.30;;;;;;4916225;29;20450;-72
2022/08/05 06:16:43;;;;;;;17.10;15.93;;;30.00;93.00;;;;;;4916188;29;20814;-74
2022/08/05 06:19:09;;;;;;;17.67;16.67;;;30.00;92.70;;;;;;4917012;29;20521;-73
2022/08/05 06:21:38;;;;;;;18.30;17.10;;;30.00;92.50;;;;;;4916883;29;20454;-75
2022/08/05 06:24:06;;;;;;;17.53;16.40;;;30.40;92.10;;;;;;4916627;29;21047;-72
2022/08/05 06:26:32;;;;;;;16.23;15.50;;;30.80;91.20;;;;;;4916432;29;20455;-74
2022/08/05 06:28:59;;;;;;;17.03;16.20;;;30.90;90.30;;;;;;4916451;29;20458;-73
2022/08/05 06:31:26;;;;;;;17.07;16.17;;;30.90;90.30;;;;;;4916681;29;20458;-73
2022/08/05 06:33:53;;;;;;;18.90;17.47;;;30.90;90.10;;;;;;4916485;29;20446;-73
2022/08/05 06:36:19;;;;;;;17.30;16.20;;;30.40;90.60;;;;;;4916201;29;20454;-77
2022/08/05 06:38:49;;;;;;;16.37;15.43;;;30.40;90.60;;;;;;4921915;29;21019;-72
2022/08/05 06:41:15;;;;;;;17.77;16.33;;;30.60;90.70;;;;;;4930344;29;20974;-71
2022/08/05 06:43:42;;;;;;;17.93;17.13;;;31.70;88.40;;;;;;4927954;29;20490;-71
2022/08/05 06:46:09;;;;;;;17.70;16.33;;;32.20;86.40;;;;;;4906149;29;20446;-70
2022/08/05 06:48:36;;;;;;;17.27;16.27;;;32.50;83.00;;;;;;4906656;29;20447;-70
2022/08/05 06:51:03;;;;;;;17.70;16.80;;;32.60;82.50;;;;;;4896740;29;21144;-69
2022/08/05 06:53:31;;;;;;;17.60;16.60;;;32.80;81.70;;;;;;4896542;29;20574;-67
2022/08/05 06:56:02;;;;;;;17.97;16.73;;;33.00;81.30;;;;;;4896933;29;20463;-67
2022/08/05 06:58:30;;;;;;;16.70;16.00;;;33.50;78.40;;;;;;4896460;29;20475;-67
2022/08/05 07:00:59;;;;;;;17.93;16.93;;;33.60;77.50;;;;;;4896635;29;20501;-68
2022/08/05 07:03:25;;;;;;;18.13;17.43;;;34.00;76.40;;;;;;4896810;29;20581;-68
2022/08/05 07:05:52;;;;;;;18.10;17.30;;;34.50;73.50;;;;;;4896462;29;20464;-68
2022/08/05 07:08:19;;;;;;;18.53;17.73;;;35.00;71.40;;;;;;4896273;29;20451;-67
2022/08/05 07:10:46;;;;;;;18.77;17.57;;;35.50;69.70;;;;;;4896437;29;20472;-67
2022/08/05 07:18:42;;;;;;;18.50;17.50;;;34.30;70.30;;;;;;4896471;29;20438;-68
2022/08/05 07:21:09;;;;;;;17.80;17.00;;;34.60;70.40;;;;;;4896442;29;20459;-68
2022/08/05 07:23:37;;;;;;;19.27;18.37;;;34.50;68.80;;;;;;4896229;29;20502;-69
2022/08/05 07:26:04;;;;;;;17.90;17.10;;;34.40;69.30;;;;;;4895809;29;20556;-69
2022/08/05 07:28:32;;;;;;;17.57;16.83;;;34.20;69.10;;;;;;4895868;29;20455;-68
2022/08/05 07:30:58;;;;;;;19.27;18.23;;;34.30;69.90;;;;;;4896031;29;20462;-70
2022/08/05 07:33:25;;;;;;;18.80;17.77;;;34.50;69.70;;;;;;4898464;29;20459;-68
2022/08/05 07:35:52;;;;;;;18.67;17.73;;;35.30;68.10;;;;;;4904791;29;20451;-67
2022/08/05 07:38:19;;;;;;;17.90;16.90;;;35.60;67.20;;;;;;4904224;29;20511;-68
2022/08/05 07:40:46;;;;;;;18.20;17.00;;;35.60;65.30;;;;;;4905724;29;20451;-67
2022/08/05 07:43:13;;;;;;;17.30;16.40;;;35.60;65.20;;;;;;4904772;29;20506;-67
2022/08/05 07:45:43;;;;;;;19.20;18.27;;;35.60;65.20;;;;;;4904081;29;20533;-67
2022/08/05 07:48:10;;;;;;;18.73;17.73;;;35.80;64.90;;;;;;4905878;29;20545;-68
2022/08/05 07:50:36;;;;;;;17.10;16.30;;;36.00;63.60;;;;;;4904972;29;20447;-67
2022/08/05 07:53:03;;;;;;;17.50;16.73;;;35.90;62.40;;;;;;4903699;29;20451;-67
2022/08/05 07:55:30;;;;;;;16.50;15.90;;;35.40;62.70;;;;;;4918972;29;20455;-67
2022/08/05 07:57:57;;;;;;;17.00;16.20;;;34.30;65.60;;;;;;4902767;29;20549;-68
2022/08/05 08:00:24;;;;;;;16.50;15.77;;;34.50;65.90;;;;;;4919546;29;20477;-67
2022/08/05 08:02:52;;;;;;;16.53;15.67;;;34.30;65.10;;;;;;4920769;29;20802;-67
2022/08/05 08:05:19;;;;;;;17.40;16.70;;;34.70;64.40;;;;;;4904036;29;20653;-67
2022/08/05 08:07:46;;;;;;;17.83;17.07;;;34.70;63.30;;;;;;4903638;29;20457;-68
2022/08/05 08:10:13;;;;;;;17.13;16.33;;;34.20;64.20;;;;;;4903886;29;20458;-67
2022/08/05 08:12:40;;;;;;;17.10;16.30;;;33.60;66.50;;;;;;4905518;29;20450;-67
2022/08/05 08:15:09;;;;;;;16.90;16.10;;;34.20;64.30;;;;;;4903687;29;20439;-68
2022/08/05 08:17:35;;;;;;;16.60;15.90;;;34.90;62.50;;;;;;4903542;29;20446;-67
2022/08/05 08:20:04;;;;;;;16.60;16.00;;;35.30;61.30;;;;;;4908230;29;20493;-67
2022/08/05 08:22:32;;;;;;;17.00;16.30;;;35.30;59.40;;;;;;4914001;29;20815;-67
2022/08/05 08:24:58;;;;;;;17.03;16.23;;;35.60;59.50;;;;;;4913840;29;20904;-68
2022/08/05 08:27:25;;;;;;;16.03;15.33;;;35.80;57.40;;;;;;4914000;29;20458;-68
2022/08/05 08:29:52;;;;;;;18.07;17.17;;;35.80;57.60;;;;;;4913892;29;20450;-68
2022/08/05 08:32:18;;;;;;;16.83;16.00;;;36.40;56.20;;;;;;4919048;29;20462;-68
2022/08/05 08:34:45;;;;;;;17.63;16.80;;;35.90;55.40;;;;;;4922697;29;20504;-68
2022/08/05 08:37:13;;;;;;;17.63;16.93;;;35.90;56.00;;;;;;4910037;29;20461;-68
2022/08/05 08:39:40;;;;;;;16.07;15.37;;;35.90;54.60;;;;;;4904595;29;20498;-68
2022/08/05 08:42:09;;;;;;;16.63;16.03;;;35.70;54.80;;;;;;4903221;29;20455;-68
2022/08/05 08:44:36;;;;;;;16.70;16.00;;;35.90;54.00;;;;;;4903038;29;20987;-69
2022/08/05 08:47:04;;;;;;;17.50;16.80;;;36.30;54.00;;;;;;4904908;29;20442;-69
2022/08/05 08:49:34;;;;;;;16.83;16.03;;;36.60;53.60;;;;;;4903758;29;20455;-69
2022/08/05 08:52:09;;;;;;;17.17;16.57;;;37.10;52.60;;;;;;4902858;29;20458;-69
2022/08/05 08:54:37;;;;;;;16.40;15.70;;;37.50;51.00;;;;;;4905566;29;20498;-69
2022/08/05 08:57:06;;;;;;;18.43;17.70;;;38.40;50.10;;;;;;4913503;29;20474;-68
2022/08/05 08:59:33;;;;;;;18.40;17.40;;;38.60;48.60;;;;;;4913479;29;20506;-67
2022/08/05 09:02:01;;;;;;;17.83;17.10;;;38.90;47.20;;;;;;4913633;29;20465;-66
2022/08/05 09:04:28;;;;;;;17.60;17.00;;;38.60;48.30;;;;;;4913460;29;20501;-68
2022/08/05 09:06:55;;;;;;;17.50;16.70;;;38.90;47.20;;;;;;4913801;29;20929;-67
2022/08/05 09:09:21;;;;;;;18.60;17.70;;;39.70;46.20;;;;;;4913615;29;20514;-67
2022/08/05 09:11:50;;;;;;;17.83;17.07;;;39.30;46.20;;;;;;4913599;29;20454;-67
2022/08/05 09:14:16;;;;;;;18.83;17.70;;;39.70;45.90;;;;;;4913653;29;20524;-68
2022/08/05 09:16:43;;;;;;;18.03;17.10;;;39.90;45.80;;;;;;4913269;29;20457;-68
2022/08/05 09:19:10;;;;;;;17.37;16.67;;;40.20;44.90;;;;;;4913557;29;21051;-68
2022/08/05 09:21:37;;;;;;;18.50;17.70;;;39.80;45.00;;;;;;4904588;29;20466;-69
2022/08/05 09:24:07;;;;;;;18.47;17.77;;;39.90;44.70;;;;;;4902611;29;20483;-68
2022/08/05 09:26:34;;;;;;;16.70;16.10;;;39.40;45.30;;;;;;4902494;29;20449;-67
2022/08/05 09:29:05;;;;;;;18.57;17.60;;;39.80;44.80;;;;;;4904037;29;21025;-68
2022/08/05 09:31:33;;;;;;;18.43;17.73;;;39.80;44.20;;;;;;4911687;29;20458;-69
2022/08/05 09:34:01;;;;;;;18.23;17.33;;;40.10;44.00;;;;;;4912883;29;20465;-69
2022/08/05 09:36:40;;;;;;;17.10;16.50;;;40.40;43.20;;;;;;4912993;29;20449;-68
2022/08/05 09:39:08;;;;;;;17.70;16.90;;;40.90;42.50;;;;;;4912995;29;20453;-68
2022/08/05 09:41:54;;;;;;;18.17;17.40;;;41.30;41.60;;;;;;4912787;29;20468;-67
2022/08/05 09:44:34;;;;;;;17.20;16.60;;;41.70;40.50;;;;;;4912858;29;20500;-68
2022/08/05 09:47:10;;;;;;;16.60;15.60;;;41.80;39.90;;;;;;4913085;29;20833;-68
2022/08/05 09:49:41;;;;;;;17.27;16.67;;;41.40;40.70;;;;;;4914459;29;20452;-66
2022/08/05 09:52:22;;;;;;;18.13;17.43;;;41.50;40.60;;;;;;4916740;29;20545;-67
2022/08/05 09:54:53;;;;;;;17.13;16.53;;;41.70;39.50;;;;;;4916284;29;20454;-68
2022/08/05 09:57:32;;;;;;;17.47;16.77;;;40.90;39.70;;;;;;4915973;29;20474;-68
2022/08/05 10:00:05;;;;;;;16.87;16.27;;;40.70;40.00;;;;;;4916222;29;20478;-69
2022/08/05 10:02:33;;;;;;;19.40;18.57;;;40.60;40.60;;;;;;4916009;29;20457;-68
2022/08/05 10:05:10;;;;;;;18.57;17.77;;;41.00;40.10;;;;;;4915919;29;20493;-68
2022/08/05 10:07:44;;;;;;;19.47;18.77;;;41.50;39.60;;;;;;4916201;29;20549;-69
2022/08/05 10:10:11;;;;;;;18.60;17.80;;;41.70;38.80;;;;;;4916207;29;20449;-69
2022/08/05 10:12:41;;;;;;;17.40;16.70;;;41.70;38.90;;;;;;4916034;29;20454;-68
2022/08/05 10:15:17;;;;;;;17.67;16.97;;;41.90;38.00;;;;;;4915915;29;20461;-68
2022/08/05 10:18:01;;;;;;;17.70;16.90;;;41.60;38.10;;;;;;4915937;29;20454;-68
2022/08/05 10:20:28;;;;;;;17.30;16.60;;;41.60;38.70;;;;;;4915923;29;20453;-69
2022/08/05 10:22:55;;;;;;;17.47;16.77;;;41.90;37.50;;;;;;4916100;29;20517;-69
2022/08/05 10:25:22;;;;;;;15.90;15.30;;;41.60;37.90;;;;;;4915717;29;20545;-68
2022/08/05 10:27:51;;;;;;;17.90;17.13;;;41.20;38.10;;;;;;4915875;29;20454;-68
2022/08/05 10:30:19;;;;;;;17.50;16.80;;;41.60;38.30;;;;;;4915872;29;20975;-69
2022/08/05 10:32:47;;;;;;;17.47;16.63;;;42.40;37.00;;;;;;4916012;29;20461;-69
2022/08/05 10:35:14;;;;;;;17.37;16.33;;;42.00;36.60;;;;;;4915757;29;20457;-68
2022/08/05 10:37:41;;;;;;;17.30;16.60;;;41.30;37.80;;;;;;4915918;29;20493;-68
2022/08/05 10:40:18;;;;;;;17.13;16.50;;;41.30;37.90;;;;;;4915971;29;21034;-68
2022/08/05 10:42:50;;;;;;;16.50;15.90;;;41.90;36.90;;;;;;4915538;29;20454;-68
2022/08/05 10:45:25;;;;;;;17.60;17.00;;;41.60;36.90;;;;;;4915301;29;20573;-68
2022/08/05 10:47:52;;;;;;;17.83;17.13;;;41.50;36.90;;;;;;4915523;29;20461;-68
2022/08/05 10:50:19;;;;;;;17.07;16.37;;;41.90;36.40;;;;;;4915370;29;20466;-68
2022/08/05 10:52:52;;;;;;;17.90;17.20;;;42.40;35.50;;;;;;4915233;29;20461;-67
2022/08/05 10:55:19;;;;;;;18.07;17.23;;;43.40;34.30;;;;;;4915501;29;20456;-69
2022/08/05 10:57:46;;;;;;;17.30;16.70;;;44.20;33.90;;;;;;4920033;29;20472;-67
2022/08/05 11:00:15;;;;;;;19.67;18.50;;;43.50;34.30;;;;;;4923618;29;21089;-69
2022/08/05 11:03:11;;;;;;;19.43;18.73;;;43.80;33.50;;;;;;4923902;29;20598;-69
2022/08/05 11:05:38;;;;;;;18.73;18.03;;;43.80;33.60;;;;;;4922905;29;21047;-67
2022/08/05 11:08:07;;;;;;;18.53;17.73;;;43.80;34.00;;;;;;4922195;29;20501;-69
2022/08/05 11:10:36;;;;;;;18.37;17.67;;;44.10;33.10;;;;;;4922993;29;20201;-69
2022/08/05 11:13:07;;;;;;;17.30;16.70;;;44.40;33.10;;;;;;4923915;29;20189;-67
2022/08/05 11:15:38;;;;;;;17.53;16.93;;;43.70;33.30;;;;;;4923117;29;20791;-68
2022/08/05 11:18:24;;;;;;;19.53;18.73;;;43.40;33.60;;;;;;4917080;29;20458;-69
2022/08/05 11:20:53;;;;;;;18.63;17.93;;;43.70;32.60;;;;;;4914997;29;20954;-68
2022/08/05 11:23:34;;;;;;;18.83;18.13;;;44.00;32.60;;;;;;4915052;29;20580;-67
2022/08/05 11:26:05;;;;;;;18.90;18.20;;;43.50;33.40;;;;;;4919158;29;20484;-68
2022/08/05 11:28:53;;;;;;;18.20;17.40;;;43.40;33.00;;;;;;4923888;29;20460;-68
2022/08/05 11:31:27;;;;;;;16.77;16.07;;;41.40;35.50;;;;;;4921058;29;20461;-68
2022/08/05 11:33:57;;;;;;;17.33;16.57;;;39.90;37.50;;;;;;4919682;29;20469;-68
2022/08/05 11:36:51;;;;;;;16.90;16.10;;;39.80;37.60;;;;;;4922712;29;20560;-68
2022/08/05 11:39:56;;;;;;;16.20;15.60;;;39.70;37.70;;;;;;4922243;29;20453;-67
2022/08/05 11:42:25;;;;;;;17.43;16.80;;;40.30;37.60;;;;;;4921778;29;20513;-67
2022/08/05 11:44:55;;;;;;;18.37;17.63;;;40.20;37.60;;;;;;4921567;29;20506;-67
2022/08/05 11:47:23;;;;;;;16.87;16.27;;;39.50;38.70;;;;;;4922575;29;20505;-67
2022/08/05 11:49:57;;;;;;;18.17;17.47;;;39.00;39.50;;;;;;4923416;29;20461;-69
2022/08/05 11:52:24;;;;;;;15.53;15.00;;;37.90;40.90;;;;;;4922993;29;20917;-67
2022/08/05 11:54:52;;;;;;;18.20;17.50;;;38.00;40.70;;;;;;4921333;29;20861;-70
2022/08/05 11:57:22;;;;;;;18.17;17.03;;;38.90;39.80;;;;;;5026985;23;20466;-68
2022/08/05 11:59:54;;;;;;;17.20;16.43;;;38.60;40.80;;;;;;4921302;29;20450;-69
2022/08/05 12:02:26;;;;;;;17.70;17.00;;;37.80;42.90;;;;;;4922405;29;20474;-67
2022/08/05 12:04:53;;;;;;;17.97;16.87;;;37.80;41.30;;;;;;4923101;29;20572;-69
2022/08/05 12:07:21;;;;;;;17.10;16.40;;;37.60;41.30;;;;;;4918318;29;20454;-69
2022/08/05 12:09:52;;;;;;;17.47;16.50;;;38.20;40.70;;;;;;4913931;29;20830;-68
2022/08/05 12:12:23;;;;;;;16.97;16.27;;;39.10;39.50;;;;;;4913518;29;20866;-69
2022/08/05 12:14:50;;;;;;;17.90;16.90;;;39.80;38.60;;;;;;4913806;29;20447;-68
2022/08/05 12:17:17;;;;;;;16.17;15.47;;;39.90;38.70;;;;;;4914063;29;20459;-68
2022/08/05 12:19:46;;;;;;;16.87;16.27;;;39.00;39.70;;;;;;4913994;29;20836;-69
2022/08/05 12:22:14;;;;;;;17.10;16.30;;;39.50;39.20;;;;;;4914202;29;20462;-66
2022/08/05 12:24:43;;;;;;;16.90;16.20;;;39.20;39.30;;;;;;4913755;29;20497;-68
2022/08/05 12:27:10;;;;;;;16.50;15.80;;;39.70;39.20;;;;;;4913780;29;20949;-67
2022/08/05 12:29:37;;;;;;;16.53;15.70;;;40.20;39.00;;;;;;4913564;29;20501;-69
2022/08/05 12:32:06;;;;;;;16.40;15.70;;;41.60;37.20;;;;;;4913852;29;20458;-69
2022/08/05 12:34:36;;;;;;;15.90;15.30;;;41.20;36.70;;;;;;4913634;29;20938;-69
2022/08/05 12:37:09;;;;;;;16.00;15.30;;;39.30;38.80;;;;;;4913405;29;20454;-69
2022/08/05 12:39:37;;;;;;;16.20;15.60;;;39.30;39.60;;;;;;4913529;29;20961;-69
2022/08/05 12:42:09;;;;;;;16.33;15.63;;;39.50;39.30;;;;;;4913381;29;20458;-68
2022/08/05 12:44:36;;;;;;;17.00;16.30;;;39.80;39.40;;;;;;4913443;29;20450;-69
2022/08/05 12:47:03;;;;;;;17.80;17.20;;;40.30;38.30;;;;;;4913466;29;20674;-68
2022/08/05 12:49:43;;;;;;;17.70;17.00;;;40.80;38.20;;;;;;4913283;29;20513;-68
2022/08/05 12:52:14;;;;;;;16.47;15.77;;;41.30;36.60;;;;;;4913714;29;20858;-67
2022/08/05 12:54:41;;;;;;;16.13;15.43;;;40.00;37.90;;;;;;4913599;29;20568;-68
2022/08/05 12:57:11;;;;;;;16.10;15.40;;;38.60;39.60;;;;;;4913071;29;20478;-68
2022/08/05 12:59:44;;;;;;;16.33;15.57;;;37.30;41.70;;;;;;4913531;29;20529;-68
2022/08/05 13:02:12;;;;;;;17.63;16.83;;;36.70;42.30;;;;;;4913496;29;20465;-69
2022/08/05 13:04:40;;;;;;;15.87;15.20;;;37.60;41.70;;;;;;4913361;29;20455;-68
2022/08/05 13:07:12;;;;;;;18.00;17.30;;;38.90;40.40;;;;;;4913237;29;20454;-69
2022/08/05 13:09:40;;;;;;;16.20;15.60;;;39.90;39.40;;;;;;4913654;29;20450;-69
2022/08/05 13:12:11;;;;;;;18.17;17.17;;;41.20;37.50;;;;;;4913147;29;20933;-68
2022/08/05 13:14:39;;;;;;;17.00;16.40;;;42.30;36.30;;;;;;4913176;29;20458;-68
2022/08/05 13:17:10;;;;;;;18.00;17.10;;;42.20;35.30;;;;;;4912937;29;20462;-68
2022/08/05 13:19:38;;;;;;;16.90;16.30;;;40.80;37.00;;;;;;4913076;29;20469;-68
2022/08/05 13:22:05;;;;;;;16.93;16.33;;;39.90;38.10;;;;;;4912807;29;20454;-67
2022/08/05 13:24:32;;;;;;;16.70;16.10;;;39.50;38.60;;;;;;4914392;29;20896;-69
2022/08/05 13:26:58;;;;;;;17.60;16.77;;;39.90;38.20;;;;;;4916485;29;20505;-68
2022/08/05 13:29:26;;;;;;;16.90;16.20;;;40.40;38.00;;;;;;4917057;29;20509;-68
2022/08/05 13:31:53;;;;;;;16.30;15.70;;;41.10;36.60;;;;;;4916465;29;20945;-68
2022/08/05 13:34:19;;;;;;;16.53;15.60;;;40.40;37.30;;;;;;4916380;29;20572;-69
2022/08/05 13:36:46;;;;;;;14.87;14.37;;;40.70;37.00;;;;;;4916553;29;20462;-68
2022/08/05 13:39:13;;;;;;;14.47;13.77;;;39.60;38.10;;;;;;4916502;29;20462;-68
2022/08/05 13:41:40;;;;;;;14.73;14.00;;;38.90;39.30;;;;;;4916495;29;20544;-67
2022/08/05 13:44:07;;;;;;;16.80;16.10;;;38.40;39.90;;;;;;4905844;29;20461;-69
2022/08/05 13:46:35;;;;;;;17.07;16.20;;;37.50;41.10;;;;;;4897233;29;20780;-69
2022/08/05 13:49:02;;;;;;;15.00;14.50;;;37.10;41.80;;;;;;4897307;29;20462;-68
2022/08/05 13:51:31;;;;;;;17.13;16.33;;;37.10;41.50;;;;;;4897496;29;20459;-69
2022/08/05 13:53:58;;;;;;;16.70;16.10;;;37.20;41.80;;;;;;4897665;29;20466;-69
2022/08/05 13:56:25;;;;;;;18.13;17.33;;;37.20;41.40;;;;;;4897634;29;20860;-69
2022/08/05 13:58:52;;;;;;;17.53;16.80;;;37.20;41.90;;;;;;4907408;29;20846;-69
2022/08/05 14:01:19;;;;;;;16.77;16.07;;;38.30;40.40;;;;;;4913226;29;20457;-68
2022/08/05 14:05:09;;;;;;;17.17;16.50;;;39.30;39.10;;;;;;4914608;29;20506;-68
2022/08/05 14:06:35;;;;;;;17.60;16.70;;;40.20;38.30;;;;;;4914408;29;20470;-69
2022/08/05 14:09:02;;;;;;;16.20;15.60;;;40.70;37.80;;;;;;4914482;29;20470;-69
2022/08/05 14:11:28;;;;;;;17.60;16.67;;;40.20;38.40;;;;;;4901363;29;20463;-68
2022/08/05 14:13:56;;;;;;;16.33;15.73;;;39.20;38.90;;;;;;4905795;29;20450;-70
2022/08/05 14:16:23;;;;;;;16.70;15.90;;;38.90;39.40;;;;;;4913327;29;20454;-69
2022/08/05 14:18:51;;;;;;;16.07;15.47;;;38.30;40.10;;;;;;4912694;29;20793;-68
2022/08/05 14:21:18;;;;;;;16.03;15.30;;;37.60;40.80;;;;;;4914097;29;21047;-68
2022/08/05 14:23:45;;;;;;;16.27;15.50;;;36.80;41.60;;;;;;4914343;29;20881;-67
2022/08/05 14:26:12;;;;;;;15.90;15.20;;;36.20;43.00;;;;;;4914357;29;20557;-67
2022/08/05 14:28:38;;;;;;;16.27;15.50;;;35.90;43.50;;;;;;4912353;29;20461;-69
2022/08/05 14:31:07;;;;;;;16.67;15.93;;;35.30;44.50;;;;;;4914249;29;20469;-68
2022/08/05 14:33:34;;;;;;;16.60;15.77;;;34.60;45.40;;;;;;4914313;29;20458;-69
2022/08/05 14:36:04;;;;;;;15.87;14.90;;;34.00;46.40;;;;;;4913241;29;20443;-67
2022/08/05 14:38:30;;;;;;;14.73;14.10;;;33.70;47.60;;;;;;4915275;29;20458;-68
2022/08/05 14:40:57;;;;;;;15.37;14.67;;;33.30;48.60;;;;;;4914276;29;20455;-68
2022/08/05 14:43:24;;;;;;;15.20;14.50;;;33.00;49.10;;;;;;4914252;29;20470;-67
2022/08/05 14:45:50;;;;;;;14.70;14.00;;;32.80;49.60;;;;;;4913417;29;20486;-67
2022/08/05 14:48:17;;;;;;;14.70;14.00;;;32.70;50.00;;;;;;4908836;29;20450;-67
2022/08/05 14:50:44;;;;;;;14.93;14.23;;;32.40;50.40;;;;;;4913628;29;20473;-67
2022/08/05 14:53:12;;;;;;;14.57;14.07;;;32.20;50.80;;;;;;4913616;29;20450;-67
2022/08/05 14:55:39;;;;;;;15.20;14.60;;;32.00;51.20;;;;;;4909220;29;20507;-68
2022/08/05 14:58:05;;;;;;;13.90;13.40;;;31.90;51.60;;;;;;4914435;29;20520;-68
2022/08/05 15:00:32;;;;;;;17.27;15.90;;;31.90;52.10;;;;;;4913652;29;20458;-67
2022/08/05 15:02:59;;;;;;;16.10;15.20;;;31.80;53.00;;;;;;4915343;29;20447;-67
2022/08/05 15:05:26;;;;;;;15.50;14.80;;;31.70;54.30;;;;;;4914884;29;20458;-67
2022/08/05 15:07:53;;;;;;;15.80;15.20;;;31.30;55.20;;;;;;4914868;29;20459;-69
2022/08/05 15:10:21;;;;;;;15.93;15.03;;;31.20;56.30;;;;;;4914881;29;20549;-68
2022/08/05 15:12:47;;;;;;;15.37;14.77;;;31.00;57.40;;;;;;4914748;29;20509;-68
2022/08/05 15:15:14;;;;;;;15.23;14.43;;;30.90;58.00;;;;;;4914766;29;20461;-68
2022/08/05 15:17:41;;;;;;;15.87;15.27;;;30.80;58.30;;;;;;4914779;29;20454;-68
2022/08/05 15:20:09;;;;;;;15.87;15.17;;;30.70;60.10;;;;;;4897303;29;20811;-69
2022/08/05 15:22:36;;;;;;;20.17;18.83;;;30.80;61.70;;;;;;4895505;29;20951;-69
2022/08/05 15:25:03;;;;;;;35.87;32.50;;;31.00;68.70;;;;;;4895413;29;20481;-72
2022/08/05 15:27:31;;;;;;;37.40;34.50;;;29.90;92.60;;;;;;4895237;29;20551;-70
2022/08/05 15:29:58;;;;;;;38.00;35.20;;;28.10;99.90;;;;;;4894883;29;20463;-70
2022/08/05 15:32:26;;;;;;;36.97;34.57;;;27.20;99.90;;;;;;4894776;29;20459;-69
2022/08/05 15:34:53;;;;;;;35.90;33.60;;;26.30;99.90;;;;;;4895085;29;20464;-69
2022/08/05 15:37:19;;;;;;;33.33;31.53;;;25.70;99.90;;;;;;4894772;29;20454;-69
2022/08/05 15:39:49;;;;;;;33.20;31.50;;;25.50;99.90;;;;;;4894703;29;20772;-69